Home > Products > Valid Products > TAF

000
FTUS44 KBMX 211122
TAFANB
TAF
KANB 211122Z 2112/2212 29005KT P6SM SKC
     FM220000 00000KT P6SM BKN150=



000
FTUS44 KBMX 211122
TAFEET
TAF
KEET 211122Z 2112/2212 30005KT P6SM SKC
     FM220000 00000KT P6SM BKN150=



000
FTUS44 KBMX 211122
TAFTCL
TAF
KTCL 211122Z 2112/2212 34004KT P6SM SKC
     FM220000 00000KT P6SM BKN150=



000
FTUS44 KBMX 211122
TAFBHM
TAF
KBHM 211122Z 2112/2212 33006KT P6SM SKC
     FM220000 00000KT P6SM BKN150=



000
FTUS44 KBMX 211122
TAFTOI
TAF
KTOI 211122Z 2112/2212 32005KT P6SM SKC
     FM220000 00000KT P6SM SCT150=



000
FTUS44 KBMX 211122
TAFMGM
TAF
KMGM 211122Z 2112/2212 32005KT P6SM SKC
     FM220000 00000KT P6SM SCT150=



000
FTUS44 KBMX 210520
TAFANB
TAF
KANB 210520Z 2106/2206 29005KT P6SM SKC=



000
FTUS44 KBMX 210520
TAFBHM
TAF
KBHM 210520Z 2106/2206 29005KT P6SM SKC=



000
FTUS44 KBMX 210520
TAFEET
TAF
KEET 210520Z 2106/2206 30005KT P6SM SKC=



000
FTUS44 KBMX 210520
TAFTCL
TAF
KTCL 210520Z 2106/2206 31005KT P6SM SKC=



000
FTUS44 KBMX 210520
TAFTOI
TAF
KTOI 210520Z 2106/2206 31005KT P6SM SKC=



000
FTUS44 KBMX 210520
TAFMGM
TAF
KMGM 210520Z 2106/2206 31005KT P6SM SKC=



000
FTUS44 KBMX 202343
TAFTCL
TAF
KTCL 202343Z 2100/2124 30010KT P6SM SKC
     FM210300 28002KT P6SM SKC
     FM211500 35005KT P6SM SKC=



000
FTUS44 KBMX 202343
TAFANB
TAF
KANB 202343Z 2100/2124 30010KT P6SM SKC
     FM210300 28002KT P6SM SKC
     FM211500 35005KT P6SM SKC=



000
FTUS44 KBMX 202343
TAFBHM
TAF
KBHM 202343Z 2100/2124 30010KT P6SM SKC
     FM210300 28002KT P6SM SKC
     FM211500 35005KT P6SM SKC=



000
FTUS44 KBMX 202343
TAFEET
TAF
KEET 202343Z 2100/2124 30010KT P6SM SKC
     FM210300 28002KT P6SM SKC
     FM211500 35005KT P6SM SKC=



000
FTUS44 KBMX 202343
TAFMGM
TAF
KMGM 202343Z 2100/2124 26012G20KT P6SM SCT050
     FM210300 30006KT P6SM SKC
     FM210600 28002KT P6SM SKC
     FM211500 34006KT P6SM SKC=



000
FTUS44 KBMX 202343
TAFTOI
TAF
KTOI 202343Z 2100/2124 26012G20KT P6SM VCSH SCT025 BKN050
     FM210300 30009KT P6SM SCT050 BKN250
     FM210600 30005KT P6SM SCT250
     FM211500 34006KT P6SM SKC=



000
FTUS44 KBMX 202343
TAFTCL
TAF
KTCL 202343Z 2100/2124 30010KT P6SM SKC
     FM210300 28002KT P6SM SKC
     FM211500 35005KT P6SM SKC=



000
FTUS44 KBMX 202343
TAFANB
TAF
KANB 202343Z 2100/2124 30010KT P6SM SKC
     FM210300 28002KT P6SM SKC
     FM211500 35005KT P6SM SKC=



000
FTUS44 KBMX 202343
TAFEET
TAF
KEET 202343Z 2100/2124 30010KT P6SM SKC
     FM210300 28002KT P6SM SKC
     FM211500 35005KT P6SM SKC=



000
FTUS44 KBMX 202343
TAFTOI
TAF
KTOI 202343Z 2100/2124 26012G20KT P6SM VCSH SCT025 BKN050
     FM210300 30009KT P6SM SCT050 BKN250
     FM210600 30005KT P6SM SCT250
     FM211500 34006KT P6SM SKC=



000
FTUS44 KBMX 202343
TAFBHM
TAF
KBHM 202343Z 2100/2124 30010KT P6SM SKC
     FM210300 28002KT P6SM SKC
     FM211500 35005KT P6SM SKC=



000
FTUS44 KBMX 202343
TAFMGM
TAF
KMGM 202343Z 2100/2124 26012G20KT P6SM SCT050
     FM210300 30006KT P6SM SKC
     FM210600 28002KT P6SM SKC
     FM211500 34006KT P6SM SKC=



000
FTUS44 KBMX 201721
TAFBHM
TAF
KBHM 201721Z 2018/2118 28015G25KT P6SM SCT025 BKN050
     FM210000 30010KT P6SM SKC
     FM210300 28002KT P6SM SKC
     FM211500 35005KT P6SM SKC=



000
FTUS44 KBMX 201721
TAFMGM
TAF
KMGM 201721Z 2018/2118 26012G20KT P6SM SCT050
     FM210300 30006KT P6SM SKC
     FM210600 28002KT P6SM SKC
     FM211500 34006KT P6SM SKC=



000
FTUS44 KBMX 201721
TAFTCL
TAF
KTCL 201721Z 2018/2118 28015G25KT P6SM SCT025 BKN050
     FM210000 30010KT P6SM SKC
     FM210300 28002KT P6SM SKC
     FM211500 35005KT P6SM SKC=



000
FTUS44 KBMX 201721
TAFTOI
TAF
KTOI 201721Z 2018/2118 26012G20KT P6SM VCSH SCT025 BKN050
     FM210300 30009KT P6SM SCT050 BKN250
     FM210600 30005KT P6SM SCT250
     FM211500 34006KT P6SM SKC=



000
FTUS44 KBMX 201721
TAFBHM
TAF
KBHM 201721Z 2018/2118 28015G25KT P6SM SCT025 BKN050
     FM210000 30010KT P6SM SKC
     FM210300 28002KT P6SM SKC
     FM211500 35005KT P6SM SKC=



000
FTUS44 KBMX 201721
TAFANB
TAF
KANB 201721Z 2018/2118 27015G25KT P6SM SCT025 BKN050
     FM210000 30010KT P6SM SKC
     FM210300 28002KT P6SM SKC
     FM211500 35005KT P6SM SKC=



000
FTUS44 KBMX 201721
TAFEET
TAF
KEET 201721Z 2018/2118 29015G24KT P6SM SCT025 BKN050
     FM210000 30010KT P6SM SKC
     FM210300 28002KT P6SM SKC
     FM211500 35005KT P6SM SKC=



000
FTUS44 KBMX 201721
TAFTCL
TAF
KTCL 201721Z 2018/2118 28015G25KT P6SM SCT025 BKN050
     FM210000 30010KT P6SM SKC
     FM210300 28002KT P6SM SKC
     FM211500 35005KT P6SM SKC=



000
FTUS44 KBMX 201721
TAFTOI
TAF
KTOI 201721Z 2018/2118 26012G20KT P6SM VCSH SCT025 BKN050
     FM210300 30009KT P6SM SCT050 BKN250
     FM210600 30005KT P6SM SCT250
     FM211500 34006KT P6SM SKC=



000
FTUS44 KBMX 201721
TAFEET
TAF
KEET 201721Z 2018/2118 29015G24KT P6SM SCT025 BKN050
     FM210000 30010KT P6SM SKC
     FM210300 28002KT P6SM SKC
     FM211500 35005KT P6SM SKC=



000
FTUS44 KBMX 201721
TAFMGM
TAF
KMGM 201721Z 2018/2118 26012G20KT P6SM SCT050
     FM210300 30006KT P6SM SKC
     FM210600 28002KT P6SM SKC
     FM211500 34006KT P6SM SKC=



000
FTUS44 KBMX 201721
TAFANB
TAF
KANB 201721Z 2018/2118 27015G25KT P6SM SCT025 BKN050
     FM210000 30010KT P6SM SKC
     FM210300 28002KT P6SM SKC
     FM211500 35005KT P6SM SKC=



000
FTUS44 KBMX 201547 AAA
TAFTCL
TAF AMD
KTCL 201547Z 2016/2112 25012G18KT P6SM SCT025 SCT040
      TEMPO 2016/2020 BKN025
     FM202000 29015G25KT P6SM SCT025 BKN050
     FM210000 30010KT P6SM SKC
     FM210300 28002KT P6SM SKC=



000
FTUS44 KBMX 201546 AAA
TAFANB
TAF AMD
KANB 201546Z 2016/2112 24012G20KT P6SM SCT025 SCT040
      TEMPO 2017/2021 BKN025
     FM202100 29015G25KT P6SM SCT025 BKN050
     FM210000 30010KT P6SM SKC
     FM210300 28002KT P6SM SKC=



000
FTUS44 KBMX 201545 AAA
TAFEET
TAF AMD
KEET 201545Z 2016/2112 24008KT P6SM SCT025 SCT040
      TEMPO 2017/2020 24012G20KT BKN025
     FM202000 29015G25KT P6SM SCT025 BKN050
     FM210000 30010KT P6SM SKC
     FM210300 28002KT P6SM SKC=



000
FTUS44 KBMX 201544 AAA
TAFBHM
TAF AMD
KBHM 201544Z 2016/2112 24012G20KT P6SM SCT025 SCT040
      TEMPO 2017/2020 BKN025
     FM202000 29015G25KT P6SM SCT025 BKN050
     FM210000 30010KT P6SM SKC
     FM210300 28002KT P6SM SKC=



000
FTUS44 KBMX 201305 CCB
TAFTOI
TAF COR
KTOI 201305Z 2013/2112 20006KT 5SM BR BKN006
     FM201500 24010G18KT P6SM SCT025 OVC050
     FM201800 26012G20KT P6SM VCSH SCT025 BKN050
     FM210300 30009KT P6SM SCT050 BKN250
     FM210600 30005KT P6SM BKN250=



000
FTUS44 KBMX 201305 CCB
TAFTOI
TAF COR
KTOI 201305Z 2013/2112 20006KT 5SM BR BKN006
     FM201500 24010G18KT P6SM SCT025 OVC050
     FM201800 26012G20KT P6SM VCSH SCT025 BKN050
     FM210300 30009KT P6SM SCT050 BKN250
     FM210600 30005KT P6SM BKN250=



000
FTUS44 KBMX 201231 AAA
TAFTOI
TAF AMD
KTOI 201231Z 2013/2112 20006KT 5SM BR SCT002
     FM201400 24010G18KT P6SM SCT025 OVC050
     FM201800 26012G20KT P6SM VCSH SCT025 BKN050
     FM210300 30009KT P6SM SCT050 BKN250
     FM210600 30005KT P6SM BKN250=



000
FTUS44 KBMX 201231 AAA
TAFTOI
TAF AMD
KTOI 201231Z 2013/2112 20006KT 5SM BR SCT002
     FM201400 24010G18KT P6SM SCT025 OVC050
     FM201800 26012G20KT P6SM VCSH SCT025 BKN050
     FM210300 30009KT P6SM SCT050 BKN250
     FM210600 30005KT P6SM BKN250=



000
FTUS44 KBMX 201133 CCA
TAFTOI
TAF COR
KTOI 201133Z 2012/2112 20006KT 1SM BR BKN002
     FM201400 23009KT 4SM BR BKN015
     FM201500 24010G18KT P6SM SCT025 OVC050
     FM201800 26012G20KT P6SM VCSH SCT025 BKN050
     FM210300 30009KT P6SM SCT050 BKN250
     FM210600 30005KT P6SM BKN250=



000
FTUS44 KBMX 201133 CCA
TAFTOI
TAF COR
KTOI 201133Z 2012/2112 20006KT 1SM BR BKN002
     FM201400 23009KT 4SM BR BKN015
     FM201500 24010G18KT P6SM SCT025 OVC050
     FM201800 26012G20KT P6SM VCSH SCT025 BKN050
     FM210300 30009KT P6SM SCT050 BKN250
     FM210600 30005KT P6SM BKN250=



000
FTUS44 KBMX 201122
TAFBHM
TAF
KBHM 201122Z 2012/2112 22008KT P6SM SCT015 SCT040
      TEMPO 2014/2017 28012KT BKN015
     FM201800 29015G25KT P6SM SCT050
     FM210000 30010KT P6SM SKC
     FM210300 28002KT P6SM SKC=



000
FTUS44 KBMX 201122
TAFMGM
TAF
KMGM 201122Z 2012/2112 20006KT P6SM SCT015 BKN050
      TEMPO 2013/2015 BKN015
     FM201800 26012G20KT P6SM SCT050
     FM210300 30006KT P6SM SKC
     FM210600 28002KT P6SM SKC=



000
FTUS44 KBMX 201122
TAFEET
TAF
KEET 201122Z 2012/2112 22006KT P6SM SCT040
      TEMPO 2014/2017 28012KT BKN015
     FM201800 26012G20KT P6SM SCT050
     FM210000 30010KT P6SM SKC
     FM210300 28002KT P6SM SKC=



000
FTUS44 KBMX 201122
TAFANB
TAF
KANB 201122Z 2012/2112 22006KT P6SM SCT040
      TEMPO 2014/2017 28012KT BKN015
     FM201800 26015G25KT P6SM SCT050
     FM210000 30010KT P6SM SKC
     FM210300 28002KT P6SM SKC=



000
FTUS44 KBMX 201122
TAFTOI
TAF
KTOI 201122Z 2012/2112 20006KT 2SM BR BKN003
     FM201400 23009KT 4SM BR BKN015
     FM201500 24010G18KT P6SM SCT025 OVC050
     FM201800 26012G20KT P6SM VCSH SCT025 BKN050
     FM210300 30009KT P6SM SCT050 BKN250
     FM210600 30005KT P6SM BKN250=



000
FTUS44 KBMX 201122
TAFTCL
TAF
KTCL 201122Z 2012/2112 22009KT P6SM SCT015 SCT040
      TEMPO 2013/2016 28012KT BKN015
     FM201700 27012G20KT P6SM SCT050
     FM210000 30006KT P6SM SKC
     FM210300 28002KT P6SM SKC=



000
FTUS44 KBMX 200755 AAA
TAFMGM
TAF AMD
KMGM 200755Z 2008/2106 20006KT P6SM SKC
     FM201300 23009KT P6SM BKN015
     FM201800 26012G20KT P6SM SCT050
     FM210000 30006KT P6SM SKC=



000
FTUS44 KBMX 200755 AAA
TAFMGM
TAF AMD
KMGM 200755Z 2008/2106 20006KT P6SM SKC
     FM201300 23009KT P6SM BKN015
     FM201800 26012G20KT P6SM SCT050
     FM210000 30006KT P6SM SKC=



000
FTUS44 KBMX 200520
TAFEET
TAF
KEET 200520Z 2006/2106 20006KT P6SM SKC
     FM200700 20006KT P6SM VCTS SCT040CB
     FM200900 22006KT P6SM SCT040
     FM201600 26012G20KT P6SM SCT050
     FM210000 30006KT P6SM SKC=



000
FTUS44 KBMX 200520
TAFANB
TAF
KANB 200520Z 2006/2106 20006KT 3SM BR SKC
     FM200800 20006KT P6SM VCTS SCT040CB
     FM201000 22006KT P6SM SCT040
     FM201600 26012G20KT P6SM SCT050
     FM210000 30006KT P6SM SKC=



000
FTUS44 KBMX 200520
TAFMGM
TAF
KMGM 200520Z 2006/2106 20006KT P6SM SKC
     FM200700 20006KT P6SM BKN008
     FM201300 23009KT P6SM BKN015
     FM201800 26012G20KT P6SM SCT050
     FM210000 30006KT P6SM SKC=



000
FTUS44 KBMX 200520
TAFTCL
TAF
KTCL 200520Z 2006/2106 20007KT P6SM VCTS SCT040CB
     FM200800 22009KT P6SM SCT040
     FM201500 27012G20KT P6SM SCT050
     FM210000 30006KT P6SM SKC=



000
FTUS44 KBMX 200520
TAFEET
TAF
KEET 200520Z 2006/2106 20006KT P6SM SKC
     FM200700 20006KT P6SM VCTS SCT040CB
     FM200900 22006KT P6SM SCT040
     FM201600 26012G20KT P6SM SCT050
     FM210000 30006KT P6SM SKC=



000
FTUS44 KBMX 200520
TAFBHM
TAF
KBHM 200520Z 2006/2106 20006KT P6SM SKC
     FM200700 20006KT P6SM VCTS SCT040CB
     FM200900 22006KT P6SM SCT040
     FM201600 26012G20KT P6SM SCT050
     FM210000 30006KT P6SM SKC=



000
FTUS44 KBMX 200520
TAFTCL
TAF
KTCL 200520Z 2006/2106 20007KT P6SM VCTS SCT040CB
     FM200800 22009KT P6SM SCT040
     FM201500 27012G20KT P6SM SCT050
     FM210000 30006KT P6SM SKC=



000
FTUS44 KBMX 200520
TAFTOI
TAF
KTOI 200520Z 2006/2106 20006KT P6SM BKN007
     FM201300 23009KT P6SM BKN015
     FM201800 26012G20KT P6SM SCT050
     FM210000 30006KT P6SM SKC=



000
FTUS44 KBMX 200520
TAFANB
TAF
KANB 200520Z 2006/2106 20006KT 3SM BR SKC
     FM200800 20006KT P6SM VCTS SCT040CB
     FM201000 22006KT P6SM SCT040
     FM201600 26012G20KT P6SM SCT050
     FM210000 30006KT P6SM SKC=



000
FTUS44 KBMX 200520
TAFMGM
TAF
KMGM 200520Z 2006/2106 20006KT P6SM SKC
     FM200700 20006KT P6SM BKN008
     FM201300 23009KT P6SM BKN015
     FM201800 26012G20KT P6SM SCT050
     FM210000 30006KT P6SM SKC=



000
FTUS44 KBMX 200520
TAFTOI
TAF
KTOI 200520Z 2006/2106 20006KT P6SM BKN007
     FM201300 23009KT P6SM BKN015
     FM201800 26012G20KT P6SM SCT050
     FM210000 30006KT P6SM SKC=



000
FTUS44 KBMX 200520
TAFBHM
TAF
KBHM 200520Z 2006/2106 20006KT P6SM SKC
     FM200700 20006KT P6SM VCTS SCT040CB
     FM200900 22006KT P6SM SCT040
     FM201600 26012G20KT P6SM SCT050
     FM210000 30006KT P6SM SKC=



000
FTUS44 KBMX 200357 AAB
TAFTOI
TAF AMD
KTOI 200357Z 2004/2024 20006KT P6SM SCT008
      TEMPO 2004/2008 OVC008
     FM200900 20006KT P6SM SCT008 BKN015
     FM201300 23009KT P6SM BKN020
     FM201800 26012G20KT P6SM SCT050=



000
FTUS44 KBMX 200357 AAB
TAFTOI
TAF AMD
KTOI 200357Z 2004/2024 20006KT P6SM SCT008
      TEMPO 2004/2008 OVC008
     FM200900 20006KT P6SM SCT008 BKN015
     FM201300 23009KT P6SM BKN020
     FM201800 26012G20KT P6SM SCT050=



000
FTUS44 KBMX 200222 AAB
TAFANB
TAF AMD
KANB 200222Z 2002/2024 20006KT P6SM SKC
      TEMPO 2002/2006 1/2SM FG BKN002
     FM200700 20006KT P6SM VCTS SCT025CB BKN050
     FM200900 22006KT P6SM SCT030
     FM201600 26012G20KT P6SM SCT050=



000
FTUS44 KBMX 200203 AAA
TAFTOI
TAF AMD
KTOI 200203Z 2002/2024 20006KT P6SM SKC
     FM200900 20006KT P6SM SCT012 BKN020
     FM201300 23009KT P6SM BKN020
     FM201800 26012G20KT P6SM SCT050=



000
FTUS44 KBMX 200203 AAA
TAFBHM
TAF AMD
KBHM 200203Z 2002/2024 20006KT P6SM SKC
     FM200600 20006KT P6SM VCTS SCT025CB BKN050
     FM200800 22006KT P6SM SCT030
     FM201600 26012G20KT P6SM SCT050=



000
FTUS44 KBMX 200203 AAA
TAFTCL
TAF AMD
KTCL 200203Z 2002/2024 20006KT P6SM SKC
     FM200500 20007KT P6SM VCTS SCT025CB BKN050
     FM200700 22009KT P6SM SCT030
     FM201500 27012G20KT P6SM SCT050=



000
FTUS44 KBMX 200203 AAA
TAFANB
TAF AMD
KANB 200203Z 2002/2024 20006KT P6SM SKC
     FM200700 20006KT P6SM VCTS SCT025CB BKN050
     FM200900 22006KT P6SM SCT030
     FM201600 26012G20KT P6SM SCT050=



000
FTUS44 KBMX 200203 AAA
TAFMGM
TAF AMD
KMGM 200203Z 2002/2024 20006KT P6SM SKC
     FM200900 20006KT P6SM SCT012 BKN020
     FM201300 23009KT P6SM BKN020
     FM201800 26012G20KT P6SM SCT050=



000
FTUS44 KBMX 200203 AAA
TAFEET
TAF AMD
KEET 200203Z 2002/2024 20006KT P6SM SKC
     FM200600 20006KT P6SM VCTS SCT025 BKN050CB
     FM200800 22006KT P6SM SCT030
     FM201600 26012G20KT P6SM SCT050=



000
FTUS44 KBMX 192327
TAFANB
TAF
KANB 192327Z 2000/2024 24006KT P6SM SKC
     FM200700 21007KT P6SM VCTS SCT025CB BKN050
     FM200900 20009KT P6SM SCT030
     FM201600 26012G20KT P6SM SCT050=



000
FTUS44 KBMX 192327
TAFMGM
TAF
KMGM 192327Z 2000/2024 24006KT P6SM SKC
     FM200900 20006KT P6SM SCT012 BKN020
     FM201300 23009KT P6SM BKN020
     FM201800 26012G20KT P6SM SCT050=



000
FTUS44 KBMX 192327
TAFBHM
TAF
KBHM 192327Z 2000/2024 24006KT P6SM SKC
     FM200600 21007KT P6SM VCTS SCT025CB BKN050
     FM200800 20009KT P6SM SCT030
     FM201600 26012G20KT P6SM SCT050=



000
FTUS44 KBMX 192327
TAFTOI
TAF
KTOI 192327Z 2000/2024 24006KT P6SM SKC
     FM200900 20006KT P6SM SCT012 BKN020
     FM201300 23009KT P6SM BKN020
     FM201800 26012G20KT P6SM SCT050=



000
FTUS44 KBMX 192327
TAFEET
TAF
KEET 192327Z 2000/2024 24006KT P6SM SKC
     FM200600 21007KT P6SM VCTS SCT025 BKN050CB
     FM200800 20009KT P6SM SCT030
     FM201600 26012G20KT P6SM SCT050=



000
FTUS44 KBMX 192327
TAFTCL
TAF
KTCL 192327Z 2000/2024 24006KT P6SM SKC
     FM200500 21007KT P6SM VCTS SCT025CB BKN050
     FM200700 21009KT P6SM SCT030
     FM201500 27012G20KT P6SM SCT050=



000
FTUS44 KBMX 192206 AAB
TAFANB
TAF AMD
KANB 192206Z 1922/2018 20012G20KT P6SM VCTS SCT035CB
     FM192245 27020G30KT 2SM TSRA BKN030CB
     FM192330 24008KT P6SM SCT050 BKN150
     FM200700 21008KT 4SM BR VCTS BKN015 BKN050CB
     FM201500 25013G20KT P6SM BKN025=



000
FTUS44 KBMX 192206 AAB
TAFANB
TAF AMD
KANB 192206Z 1922/2018 20012G20KT P6SM VCTS SCT035CB
     FM192245 27020G30KT 2SM TSRA BKN030CB
     FM192330 24008KT P6SM SCT050 BKN150
     FM200700 21008KT 4SM BR VCTS BKN015 BKN050CB
     FM201500 25013G20KT P6SM BKN025=



000
FTUS44 KBMX 192142 AAC
TAFTOI
TAF AMD
KTOI 192142Z 1922/2018 23011G18KT P6SM SCT025
     FM200100 23007KT P6SM SCT050
     FM200900 21008KT 3SM BR SCT003 OVC015
     FM201300 25013G20KT 5SM SHRA BR BKN025=



000
FTUS44 KBMX 192142 AAC
TAFTOI
TAF AMD
KTOI 192142Z 1922/2018 23011G18KT P6SM SCT025
     FM200100 23007KT P6SM SCT050
     FM200900 21008KT 3SM BR SCT003 OVC015
     FM201300 25013G20KT 5SM SHRA BR BKN025=



000
FTUS44 KBMX 192141 AAC
TAFMGM
TAF AMD
KMGM 192141Z 1922/2018 20010G18KT P6SM SCT025 BKN040
     FM192230 24012G20KT P6SM SCT050 BKN150
     FM200100 23007KT P6SM SCT040
     FM200900 21008KT 3SM BR SCT007 OVC015
     FM201300 25013G20KT 6SM SHRA BR BKN025=



000
FTUS44 KBMX 192141 AAC
TAFMGM
TAF AMD
KMGM 192141Z 1922/2018 20010G18KT P6SM SCT025 BKN040
     FM192230 24012G20KT P6SM SCT050 BKN150
     FM200100 23007KT P6SM SCT040
     FM200900 21008KT 3SM BR SCT007 OVC015
     FM201300 25013G20KT 6SM SHRA BR BKN025=



000
FTUS44 KBMX 192139 AAE
TAFTCL
TAF AMD
KTCL 192139Z 1922/2018 25012G22KT P6SM SCT050
     FM200500 20008KT P6SM VCTS SCT025 BKN050CB
     FM201200 25013G20KT P6SM BKN025=



000
FTUS44 KBMX 192138 AAA
TAFANB
TAF AMD
KANB 192138Z 1922/2018 20012G20KT P6SM SCT035
     FM192300 27020G30KT 2SM TSRA BKN030CB
     FM200000 24008KT P6SM SCT050 BKN150
     FM200700 21008KT 4SM BR VCTS BKN015 BKN050CB
     FM201500 25013G20KT P6SM BKN025=



000
FTUS44 KBMX 192138 AAA
TAFANB
TAF AMD
KANB 192138Z 1922/2018 20012G20KT P6SM SCT035
     FM192300 27020G30KT 2SM TSRA BKN030CB
     FM200000 24008KT P6SM SCT050 BKN150
     FM200700 21008KT 4SM BR VCTS BKN015 BKN050CB
     FM201500 25013G20KT P6SM BKN025=



000
FTUS44 KBMX 192137 AAB
TAFEET
TAF AMD
KEET 192137Z 1922/2018 24012G20KT P6SM SCT050
     FM200600 21008KT P6SM VCTS SCT025 BKN050CB
     FM201200 25012G20KT P6SM BKN025=



000
FTUS44 KBMX 192134 AAC
TAFBHM
TAF AMD
KBHM 192134Z 1922/2018 23012G20KT P6SM SCT040
     FM200600 21009KT P6SM VCTS SCT025 BKN050CB
     FM201000 25013G20KT P6SM BKN025=



000
FTUS44 KBMX 192101 AAD
TAFTCL
TAF AMD
KTCL 192101Z 1921/2018 24012G22KT P6SM BKN050
     FM200000 20008KT P6SM SCT050 BKN150
     FM200500 20008KT P6SM VCTS SCT025 BKN050CB
     FM201200 25013G20KT P6SM BKN025=



000
FTUS44 KBMX 192055 AAB
TAFTOI
TAF AMD
KTOI 192055Z 1921/2018 21011G18KT P6SM BKN025 OVC040
     FM192200 21011G18KT P6SM SCT025 BKN040
     FM200000 20007KT P6SM SCT050 BKN150
     FM200900 21008KT 3SM BR SCT003 OVC015
     FM201300 25013G20KT 5SM SHRA BR BKN025=



000
FTUS44 KBMX 192055 AAB
TAFTOI
TAF AMD
KTOI 192055Z 1921/2018 21011G18KT P6SM BKN025 OVC040
     FM192200 21011G18KT P6SM SCT025 BKN040
     FM200000 20007KT P6SM SCT050 BKN150
     FM200900 21008KT 3SM BR SCT003 OVC015
     FM201300 25013G20KT 5SM SHRA BR BKN025=



000
FTUS44 KBMX 192034 AAB
TAFMGM
TAF AMD
KMGM 192034Z 1921/2018 21010G18KT P6SM SCT025 BKN040
     FM200000 20007KT P6SM SCT050 BKN150
     FM200900 21008KT 3SM BR SCT007 OVC015
     FM201300 25013G20KT 6SM SHRA BR BKN025=



000
FTUS44 KBMX 192019 AAB
TAFBHM
TAF AMD
KBHM 192019Z 1920/2018 20011G18KT P6SM VCTS SCT025 BKN040CB
      TEMPO 1920/1922 2SM TSRA
     FM192300 20009KT P6SM SCT050 BKN150
     FM200700 21009KT P6SM VCTS SCT025 BKN050CB
     FM201200 25013G20KT P6SM BKN025=



000
FTUS44 KBMX 191931 AAC
TAFTCL
TAF AMD
KTCL 191931Z 1920/2018 20012G20KT P6SM VCTS SCT025 BKN040CB
     FM192200 20008KT P6SM SCT050 BKN150
     FM200500 20008KT P6SM VCTS SCT025 BKN050CB
     FM201200 25013G20KT P6SM BKN025=



000
FTUS44 KBMX 191858 AAA
TAFMGM
TAF AMD
KMGM 191858Z 1919/2018 20010G18KT P6SM SCT020 BKN040
     FM192100 21010G18KT P6SM VCTS BKN040CB
     FM200000 20007KT P6SM SCT050 BKN150
     FM200900 21008KT 3SM BR SCT007 OVC015
     FM201300 25013G20KT 6SM SHRA BR BKN025=



000
FTUS44 KBMX 191808 CCA
TAFTCL
TAF COR
KTCL 191808Z 1918/2018 20009KT P6SM VCTS SCT025 OVC040CB
     FM192200 20008KT P6SM SCT050 BKN150
     FM200500 20008KT P6SM VCTS SCT025 BKN050CB
     FM201200 25013G20KT P6SM BKN025=



000
FTUS44 KBMX 191746 RRA
TAFTOI
TAF
KTOI 191746Z 1918/2018 20010KT P6SM BKN025 OVC040
     FM192200 20010G18KT P6SM VCTS BKN040CB
     FM200300 20007KT P6SM SCT050 BKN150
     FM200900 21008KT 3SM BR SCT003 OVC015
     FM201300 25013G20KT 5SM SHRA BR BKN025=



000
FTUS44 KBMX 191746 RRA
TAFANB
TAF
KANB 191746Z 1918/2018 23009KT P6SM BKN025 OVC040
     FM192000 22010G18KT P6SM VCTS BKN040CB
     FM200000 20007KT P6SM SCT050 BKN150
     FM200800 21008KT 4SM BR VCTS BKN015 BKN050CB
     FM201500 25013G20KT P6SM BKN025=



000
FTUS44 KBMX 191746 RRA
TAFEET
TAF
KEET 191746Z 1918/2018 21009KT P6SM BKN025 BKN040
     FM191900 20010G18KT P6SM VCTS SCT025 BKN040CB
     FM192300 20008KT P6SM SCT050 BKN150
     FM200700 21008KT P6SM VCTS SCT025 BKN050CB
     FM201200 25012G20KT P6SM BKN025=



000
FTUS44 KBMX 191746 RRA
TAFTCL
TAF
KTCL 191746Z 1918/2018 20009KT P6SM SCT025 OVC040
      TEMPO 1918/1920 BKN025
     FM192200 20008KT P6SM SCT050 BKN150
     FM200500 20008KT P6SM VCTS SCT025 BKN050CB
     FM201200 25013G20KT P6SM BKN025=



000
FTUS44 KBMX 191746 RRA
TAFBHM
TAF
KBHM 191746Z 1918/2018 18011KT P6SM BKN025 BKN040
     FM191900 20011G18KT P6SM VCTS SCT025 BKN040CB
     FM192300 20009KT P6SM SCT050 BKN150
     FM200700 21009KT P6SM VCTS SCT025 BKN050CB
     FM201200 25013G20KT P6SM BKN025=



000
FTUS44 KBMX 191746 RRA
TAFMGM
TAF
KMGM 191746Z 1918/2018 18010G18KT P6SM BKN025 OVC040
     FM192100 20010G18KT P6SM VCTS BKN040CB
     FM200000 20007KT P6SM SCT050 BKN150
     FM200900 21008KT 3SM BR SCT007 OVC015
     FM201300 25013G20KT 6SM SHRA BR BKN025=



000
FTUS44 KBMX 191531 AAB
TAFTCL
TAF AMD
KTCL 191531Z 1916/2012 22009KT P6SM BKN015=



000
FTUS44 KBMX 191429 AAA
TAFTOI
TAF AMD
KTOI 191429Z 1914/2012 15005KT P6SM SHRA VCTS BKN015CB OVC035
      TEMPO 1914/1916 2SM +TSRA BR
     FM191700 19009KT P6SM BKN035=



000
FTUS44 KBMX 191429 AAA
TAFTOI
TAF AMD
KTOI 191429Z 1914/2012 15005KT P6SM SHRA VCTS BKN015CB OVC035
      TEMPO 1914/1916 2SM +TSRA BR
     FM191700 19009KT P6SM BKN035=



000
FTUS44 KBMX 191309 AAA
TAFTCL
TAF AMD
KTCL 191309Z 1913/2012 17008KT P6SM VCSH BKN008 OVC045
     FM191345 22009KT P6SM BKN050=



000
FTUS44 KBMX 191308 AAA
TAFEET
TAF AMD
KEET 191308Z 1913/2012 21009KT P6SM BKN050
      TEMPO 1913/1914 3SM SHRA BKN012=



000
FTUS44 KBMX 191307 AAA
TAFBHM
TAF AMD
KBHM 191307Z 1913/2012 22008KT P6SM BKN050
      TEMPO 1913/1914 3SM SHRA BR BKN010=



000
FTUS44 KBMX 191307 AAA
TAFBHM
TAF AMD
KBHM 191307Z 1913/2012 22008KT P6SM BKN050
      TEMPO 1913/1914 3SM SHRA BR BKN010=



000
FTUS44 KBMX 191139
TAFANB
TAF
KANB 191139Z 1912/2012 20007KT P6SM -RA SCT020 OVC050
     FM191300 20007KT P6SM BKN012 OVC025
      TEMPO 1913/1915 22010G20KT 1SM +TSRA BKN009CB OVC015
     FM191600 22009KT P6SM OVC015
     FM191800 23009KT P6SM BKN035=



000
FTUS44 KBMX 191139
TAFMGM
TAF
KMGM 191139Z 1912/2012 15005KT P6SM VCSH SCT010 OVC080
     FM191500 21009KT P6SM BKN035=



000
FTUS44 KBMX 191139
TAFTOI
TAF
KTOI 191139Z 1912/2012 15005KT P6SM VCSH SCT010 OVC080
      TEMPO 1912/1914 1SM +TSRA BR OVC010CB
     FM191500 19009KT P6SM BKN035=



000
FTUS44 KBMX 191139
TAFTCL
TAF
KTCL 191139Z 1912/2012 20010KT 5SM -SHRA BR SCT020 OVC030
     FM191245 20010KT P6SM VCSH SCT020 BKN050
     FM191500 22009KT P6SM BKN035=



000
FTUS44 KBMX 191139
TAFBHM
TAF
KBHM 191139Z 1912/2012 18008KT P6SM BKN012 OVC025
      TEMPO 1912/1914 22012G22KT 1SM +TSRA BR BKN009CB OVC015
     FM191600 22010KT P6SM OVC015
     FM191800 23010KT P6SM BKN035=



000
FTUS44 KBMX 191139
TAFEET
TAF
KEET 191139Z 1912/2012 18008KT P6SM BKN012 OVC025
      TEMPO 1912/1914 22010G20KT 1SM +TSRA BR BKN009CB OVC015
     FM191600 22009KT P6SM OVC015
     FM191800 23009KT P6SM BKN035=



000
FTUS44 KBMX 191017 AAB
TAFTOI
TAF AMD
KTOI 191017Z 1910/2006 15008KT P6SM VCSH SCT007 OVC080
      TEMPO 1910/1914 2SM SHRA BR BKN007 OVC025
     FM191500 21009KT P6SM OVC015
     FM191800 20007KT P6SM OVC050=



000
FTUS44 KBMX 191015 AAB
TAFMGM
TAF AMD
KMGM 191015Z 1910/2006 15005KT P6SM VCSH SCT010 OVC080
     FM191500 21009KT P6SM OVC015
     FM191800 20007KT P6SM OVC050
     FM192100 23009KT P6SM OVC250=



000
FTUS44 KBMX 191014 AAB
TAFEET
TAF AMD
KEET 191014Z 1910/2006 18008KT P6SM OVC010
      TEMPO 1911/1913 22010G20KT 1SM +TSRA BR BKN007CB OVC012
     FM191300 17008KT P6SM OVC007
     FM191500 22009KT P6SM OVC015
     FM191900 23009KT P6SM SCT050 OVC250=



000
FTUS44 KBMX 191013 AAB
TAFBHM
TAF AMD
KBHM 191013Z 1910/2006 18008KT P6SM OVC025
      TEMPO 1910/1913 22012G22KT 1SM +TSRA BR BKN009CB OVC015
     FM191300 17008KT P6SM OVC007
     FM191600 22009KT P6SM OVC015
     FM192000 23009KT P6SM SCT050 OVC250=



000
FTUS44 KBMX 191012 AAA
TAFTCL
TAF AMD
KTCL 191012Z 1910/2006 18007KT 5SM -SHRA BKN012 OVC025
      TEMPO 1910/1912 22012G20KT 1SM +TSRA BR OVC007CB
     FM191200 17008KT P6SM OVC007
     FM191500 22009KT P6SM OVC015
     FM192100 23009KT P6SM SCT050 OVC250=



000
FTUS44 KBMX 191012 AAA
TAFTCL
TAF AMD
KTCL 191012Z 1910/2006 18007KT 5SM -SHRA BKN012 OVC025
      TEMPO 1910/1912 22012G20KT 1SM +TSRA BR OVC007CB
     FM191200 17008KT P6SM OVC007
     FM191500 22009KT P6SM OVC015
     FM192100 23009KT P6SM SCT050 OVC250=



000
FTUS44 KBMX 190848 AAA
TAFTOI
TAF AMD
KTOI 190848Z 1909/2006 15008KT P6SM VCSH OVC007
     FM191200 18008KT 2SM BR OVC007
     FM191500 21009KT P6SM OVC015
     FM191800 20007KT P6SM OVC050=



000
FTUS44 KBMX 190848 AAA
TAFTOI
TAF AMD
KTOI 190848Z 1909/2006 15008KT P6SM VCSH OVC007
     FM191200 18008KT 2SM BR OVC007
     FM191500 21009KT P6SM OVC015
     FM191800 20007KT P6SM OVC050=



000
FTUS44 KBMX 190847 AAA
TAFMGM
TAF AMD
KMGM 190847Z 1909/2006 15005KT P6SM VCSH BKN015 OVC020
     FM191000 18008KT 4SM BR OVC007
     FM191500 21009KT P6SM OVC015
     FM191800 20007KT P6SM OVC050
     FM192100 23009KT P6SM OVC250=



000
FTUS44 KBMX 190847 AAA
TAFMGM
TAF AMD
KMGM 190847Z 1909/2006 15005KT P6SM VCSH BKN015 OVC020
     FM191000 18008KT 4SM BR OVC007
     FM191500 21009KT P6SM OVC015
     FM191800 20007KT P6SM OVC050
     FM192100 23009KT P6SM OVC250=



000
FTUS44 KBMX 190839 AAA
TAFANB
TAF AMD
KANB 190839Z 1909/2006 08005KT P6SM -RA SCT020 BKN035
      TEMPO 1909/1913 3SM -SHRA BKN010 OVC015
     FM191400 17008KT P6SM OVC007
     FM191700 22009KT P6SM OVC015
     FM192000 23009KT P6SM SCT050 OVC250=



000
FTUS44 KBMX 190838 AAA
TAFEET
TAF AMD
KEET 190838Z 1909/2006 12005KT P6SM OVC015
      TEMPO 1909/1913 2SM +SHRA BR BKN008
     FM191300 17008KT P6SM OVC007
     FM191500 22009KT P6SM OVC015
     FM191900 23009KT P6SM SCT050 OVC250=



000
FTUS44 KBMX 190837 AAA
TAFBHM
TAF AMD
KBHM 190837Z 1909/2006 16008KT P6SM OVC015
      TEMPO 1909/1913 2SM +SHRA BR BKN009
     FM191300 17008KT P6SM OVC007
     FM191600 22009KT P6SM OVC015
     FM192000 23009KT P6SM SCT050 OVC250=



000
FTUS44 KBMX 190520
TAFBHM
TAF
KBHM 190520Z 1906/2006 12005KT 6SM -RA SCT007 BKN025
     FM190700 16008KT 5SM SHRA VCTS OVC007CB
     FM191300 17008KT P6SM OVC007
     FM191600 22009KT P6SM OVC015
     FM192000 23009KT P6SM SCT050 OVC250=



000
FTUS44 KBMX 190520
TAFBHM
TAF
KBHM 190520Z 1906/2006 12005KT 6SM -RA SCT007 BKN025
     FM190700 16008KT 5SM SHRA VCTS OVC007CB
     FM191300 17008KT P6SM OVC007
     FM191600 22009KT P6SM OVC015
     FM192000 23009KT P6SM SCT050 OVC250=



000
FTUS44 KBMX 190520
TAFTOI
TAF
KTOI 190520Z 1906/2006 VRB04KT 6SM BR VCSH SCT015 BKN035
     FM190700 VRB04KT P6SM -RA BKN020
     FM190900 15008KT 5SM SHRA VCTS OVC007CB
     FM191200 18008KT 2SM BR OVC007
     FM191500 21009KT P6SM OVC015
     FM191800 20007KT P6SM OVC050=



000
FTUS44 KBMX 190520
TAFTCL
TAF
KTCL 190520Z 1906/2006 12005KT P6SM -RA SCT007 OVC025
     FM190700 16008KT 5SM SHRA VCTS OVC007CB
     FM191200 17008KT P6SM OVC007
     FM191500 22009KT P6SM OVC015
     FM192100 23009KT P6SM SCT050 OVC250=



000
FTUS44 KBMX 190520
TAFMGM
TAF
KMGM 190520Z 1906/2006 20005KT P6SM SCT015 BKN035
     FM190700 15005KT P6SM VCSH BKN025
     FM191000 18008KT 4SM BR OVC007
     FM191500 21009KT P6SM OVC015
     FM191800 20007KT P6SM OVC050
     FM192100 23009KT P6SM OVC250=



000
FTUS44 KBMX 190520
TAFTOI
TAF
KTOI 190520Z 1906/2006 VRB04KT 6SM BR VCSH SCT015 BKN035
     FM190700 VRB04KT P6SM -RA BKN020
     FM190900 15008KT 5SM SHRA VCTS OVC007CB
     FM191200 18008KT 2SM BR OVC007
     FM191500 21009KT P6SM OVC015
     FM191800 20007KT P6SM OVC050=



000
FTUS44 KBMX 190520
TAFTCL
TAF
KTCL 190520Z 1906/2006 12005KT P6SM -RA SCT007 OVC025
     FM190700 16008KT 5SM SHRA VCTS OVC007CB
     FM191200 17008KT P6SM OVC007
     FM191500 22009KT P6SM OVC015
     FM192100 23009KT P6SM SCT050 OVC250=



000
FTUS44 KBMX 190520
TAFANB
TAF
KANB 190520Z 1906/2006 15005KT P6SM -RA SCT007 BKN025
     FM190730 16008KT 5SM SHRA VCTS OVC007CB
     FM191400 17008KT P6SM OVC007
     FM191700 22009KT P6SM OVC015
     FM192000 23009KT P6SM SCT050 OVC250=



000
FTUS44 KBMX 190520
TAFEET
TAF
KEET 190520Z 1906/2006 12005KT 3SM SHRA VCTS OVC007CB
     FM191200 17008KT P6SM OVC007
     FM191500 22009KT P6SM OVC015
     FM191900 23009KT P6SM SCT050 OVC250=



000
FTUS44 KBMX 190520
TAFMGM
TAF
KMGM 190520Z 1906/2006 20005KT P6SM SCT015 BKN035
     FM190700 15005KT P6SM VCSH BKN025
     FM191000 18008KT 4SM BR OVC007
     FM191500 21009KT P6SM OVC015
     FM191800 20007KT P6SM OVC050
     FM192100 23009KT P6SM OVC250=



000
FTUS44 KBMX 190520
TAFEET
TAF
KEET 190520Z 1906/2006 12005KT 3SM SHRA VCTS OVC007CB
     FM191200 17008KT P6SM OVC007
     FM191500 22009KT P6SM OVC015
     FM191900 23009KT P6SM SCT050 OVC250=



000
FTUS44 KBMX 190520
TAFANB
TAF
KANB 190520Z 1906/2006 15005KT P6SM -RA SCT007 BKN025
     FM190730 16008KT 5SM SHRA VCTS OVC007CB
     FM191400 17008KT P6SM OVC007
     FM191700 22009KT P6SM OVC015
     FM192000 23009KT P6SM SCT050 OVC250=



000
FTUS44 KBMX 190437 AAC
TAFEET
TAF AMD
KEET 190437Z 1905/1924 16008KT 3SM SHRA VCTS OVC007CB
     FM191200 17008KT P6SM OVC007
     FM191500 22009KT P6SM OVC015
     FM191900 23009KT P6SM SCT050 OVC250=



000
FTUS44 KBMX 190437 AAC
TAFEET
TAF AMD
KEET 190437Z 1905/1924 16008KT 3SM SHRA VCTS OVC007CB
     FM191200 17008KT P6SM OVC007
     FM191500 22009KT P6SM OVC015
     FM191900 23009KT P6SM SCT050 OVC250=



000
FTUS44 KBMX 190234 AAB
TAFTCL
TAF AMD
KTCL 190234Z 1903/1924 12005KT P6SM -RA SCT020 BKN035
      TEMPO 1904/1906 BKN020
     FM190600 16008KT 5SM SHRA VCTS OVC007CB
     FM191200 17008KT P6SM OVC007
     FM191500 22009KT P6SM OVC015
     FM192100 23009KT P6SM SCT050 OVC250=



000
FTUS44 KBMX 190232 AAA
TAFANB
TAF AMD
KANB 190232Z 1903/1924 23005KT P6SM BKN035
     FM190400 15005KT P6SM -RA BKN025
     FM190700 16008KT 5SM SHRA VCTS OVC007CB
     FM191400 17008KT P6SM OVC007
     FM191700 22009KT P6SM OVC015
     FM192000 23009KT P6SM SCT050 OVC250=



000
FTUS44 KBMX 190232 AAA
TAFANB
TAF AMD
KANB 190232Z 1903/1924 23005KT P6SM BKN035
     FM190400 15005KT P6SM -RA BKN025
     FM190700 16008KT 5SM SHRA VCTS OVC007CB
     FM191400 17008KT P6SM OVC007
     FM191700 22009KT P6SM OVC015
     FM192000 23009KT P6SM SCT050 OVC250=



000
FTUS44 KBMX 190231 AAB
TAFEET
TAF AMD
KEET 190231Z 1903/1924 17003KT P6SM -RA OVC035
     FM190400 12005KT 6SM -RA BKN025
     FM190600 16008KT 5SM SHRA VCTS OVC007CB
     FM191200 17008KT P6SM OVC007
     FM191500 22009KT P6SM OVC015
     FM191900 23009KT P6SM SCT050 OVC250=



000
FTUS44 KBMX 190231 AAB
TAFEET
TAF AMD
KEET 190231Z 1903/1924 17003KT P6SM -RA OVC035
     FM190400 12005KT 6SM -RA BKN025
     FM190600 16008KT 5SM SHRA VCTS OVC007CB
     FM191200 17008KT P6SM OVC007
     FM191500 22009KT P6SM OVC015
     FM191900 23009KT P6SM SCT050 OVC250=



000
FTUS44 KBMX 190229 AAB
TAFBHM
TAF AMD
KBHM 190229Z 1902/1924 20005KT P6SM BKN035
     FM190300 12005KT 6SM -RA BKN025
     FM190600 16008KT 5SM SHRA VCTS OVC007CB
     FM191300 17008KT P6SM OVC007
     FM191600 22009KT P6SM OVC015
     FM192000 23009KT P6SM SCT050 OVC250=



000
FTUS44 KBMX 190049 AAB
TAFTOI
TAF AMD
KTOI 190049Z 1901/1924 VRB04KT 6SM BR VCSH SCT015 BKN035
     FM190200 VRB04KT P6SM VCSH BKN020
     FM190500 15008KT 5SM SHRA VCTS OVC007CB
     FM191200 18008KT 2SM BR OVC007
     FM191500 21009KT P6SM OVC015
     FM191800 20007KT P6SM OVC050=



000
FTUS44 KBMX 190049 AAB
TAFTOI
TAF AMD
KTOI 190049Z 1901/1924 VRB04KT 6SM BR VCSH SCT015 BKN035
     FM190200 VRB04KT P6SM VCSH BKN020
     FM190500 15008KT 5SM SHRA VCTS OVC007CB
     FM191200 18008KT 2SM BR OVC007
     FM191500 21009KT P6SM OVC015
     FM191800 20007KT P6SM OVC050=



000
FTUS44 KBMX 190047 AAA
TAFMGM
TAF AMD
KMGM 190047Z 1901/1924 20005KT P6SM SCT015 BKN035
     FM190300 15005KT P6SM VCSH BKN025
     FM190500 15008KT 5SM SHRA VCTS OVC007CB
     FM191200 18008KT 4SM BR OVC007
     FM191500 21009KT P6SM OVC015
     FM191800 20007KT P6SM OVC050
     FM192100 23009KT P6SM OVC250=



000
FTUS44 KBMX 190047 AAA
TAFTOI
TAF AMD
KTOI 190047Z 1901/1924 VRB04KT P6SM SCT015 BKN035
     FM190200 VRB04KT P6SM VCSH BKN020
     FM190500 15008KT 5SM SHRA VCTS OVC007CB
     FM191200 18008KT 2SM BR OVC007
     FM191500 21009KT P6SM OVC015
     FM191800 20007KT P6SM OVC050=



000
FTUS44 KBMX 190047 AAA
TAFMGM
TAF AMD
KMGM 190047Z 1901/1924 20005KT P6SM SCT015 BKN035
     FM190300 15005KT P6SM VCSH BKN025
     FM190500 15008KT 5SM SHRA VCTS OVC007CB
     FM191200 18008KT 4SM BR OVC007
     FM191500 21009KT P6SM OVC015
     FM191800 20007KT P6SM OVC050
     FM192100 23009KT P6SM OVC250=



000
FTUS44 KBMX 190047 AAA
TAFTOI
TAF AMD
KTOI 190047Z 1901/1924 VRB04KT P6SM SCT015 BKN035
     FM190200 VRB04KT P6SM VCSH BKN020
     FM190500 15008KT 5SM SHRA VCTS OVC007CB
     FM191200 18008KT 2SM BR OVC007
     FM191500 21009KT P6SM OVC015
     FM191800 20007KT P6SM OVC050=



000
FTUS44 KBMX 190046 AAA
TAFBHM
TAF AMD
KBHM 190046Z 1901/1924 20005KT P6SM BKN035
     FM190200 12005KT P6SM BKN025
     FM190600 16008KT 5SM SHRA VCTS OVC007CB
     FM191300 17008KT P6SM OVC007
     FM191600 22009KT P6SM OVC015
     FM192000 23009KT P6SM SCT050 OVC250=



000
FTUS44 KBMX 190046 AAA
TAFEET
TAF AMD
KEET 190046Z 1901/1924 17003KT P6SM OVC025
     FM190500 16008KT 5SM SHRA VCTS OVC007CB
     FM191200 17008KT P6SM OVC007
     FM191500 22009KT P6SM OVC015
     FM191900 23009KT P6SM SCT050 OVC250=



000
FTUS44 KBMX 190046 AAA
TAFBHM
TAF AMD
KBHM 190046Z 1901/1924 20005KT P6SM BKN035
     FM190200 12005KT P6SM BKN025
     FM190600 16008KT 5SM SHRA VCTS OVC007CB
     FM191300 17008KT P6SM OVC007
     FM191600 22009KT P6SM OVC015
     FM192000 23009KT P6SM SCT050 OVC250=



000
FTUS44 KBMX 190044 AAA
TAFTCL
TAF AMD
KTCL 190044Z 1901/1924 12005KT P6SM OVC025
     FM190200 16008KT 5SM SHRA VCTS OVC007CB
     FM191200 17008KT P6SM OVC007
     FM191500 22009KT P6SM OVC015
     FM192100 23009KT P6SM SCT050 OVC250=



000
FTUS44 KBMX 182320
TAFTOI
TAF
KTOI 182320Z 1900/1924 VRB04KT P6SM SCT015 BKN035
     FM190300 VRB04KT P6SM VCSH BKN020
     FM190600 15008KT 5SM SHRA VCTS OVC007CB
     FM191200 18008KT 2SM BR OVC007
     FM191500 21009KT P6SM OVC015
     FM191800 20007KT P6SM OVC050=



000
FTUS44 KBMX 182320
TAFBHM
TAF
KBHM 182320Z 1900/1924 20005KT P6SM BKN035
     FM190100 12005KT P6SM BKN025
     FM190700 16008KT 5SM SHRA VCTS OVC007CB
     FM191300 17008KT P6SM OVC007
     FM191600 22009KT P6SM OVC015
     FM192000 23009KT P6SM SCT050 OVC250=



000
FTUS44 KBMX 182320
TAFEET
TAF
KEET 182320Z 1900/1924 17003KT P6SM OVC025
     FM190600 16008KT 5SM SHRA VCTS OVC007CB
     FM191200 17008KT P6SM OVC007
     FM191500 22009KT P6SM OVC015
     FM191900 23009KT P6SM SCT050 OVC250=



000
FTUS44 KBMX 182320
TAFMGM
TAF
KMGM 182320Z 1900/1924 20005KT P6SM SCT015 BKN035
     FM190300 15005KT P6SM VCSH BKN025
     FM190600 15008KT 5SM SHRA VCTS OVC007CB
     FM191200 18008KT 4SM BR OVC007
     FM191500 21009KT P6SM OVC015
     FM191800 20007KT P6SM OVC050
     FM192100 23009KT P6SM OVC250=



000
FTUS44 KBMX 182320
TAFANB
TAF
KANB 182320Z 1900/1924 23007KT P6SM BKN035
     FM190100 15005KT P6SM BKN025
     FM190700 16008KT 5SM SHRA VCTS OVC007CB
     FM191400 17008KT P6SM OVC007
     FM191700 22009KT P6SM OVC015
     FM192000 23009KT P6SM SCT050 OVC250=



000
FTUS44 KBMX 182320
TAFTCL
TAF
KTCL 182320Z 1900/1924 12005KT P6SM OVC025
     FM190600 16008KT 5SM SHRA VCTS OVC007CB
     FM191200 17008KT P6SM OVC007
     FM191500 22009KT P6SM OVC015
     FM192100 23009KT P6SM SCT050 OVC250=



000
FTUS44 KBMX 181720
TAFEET
TAF
KEET 181720Z 1818/1918 15005KT P6SM BKN025
     FM190600 16008KT 5SM SHRA OVC007
     FM191200 17008KT P6SM OVC007=



000
FTUS44 KBMX 181720
TAFANB
TAF
KANB 181720Z 1818/1918 11005KT P6SM BKN025
     FM190600 12008KT 5SM SHRA OVC007
     FM191200 17008KT P6SM OVC007=



000
FTUS44 KBMX 181720
TAFMGM
TAF
KMGM 181720Z 1818/1918 15005KT P6SM BKN025
     FM190600 15008KT 5SM SHRA OVC007
     FM191200 18008KT P6SM OVC007=



000
FTUS44 KBMX 181720
TAFTCL
TAF
KTCL 181720Z 1818/1918 12005KT P6SM BKN025
     FM190600 14008KT 5SM SHRA OVC007
     FM191200 17008KT P6SM OVC007=



000
FTUS44 KBMX 181720
TAFBHM
TAF
KBHM 181720Z 1818/1918 13005KT P6SM BKN025
     FM190600 14008KT 5SM SHRA OVC007
     FM191200 17008KT P6SM OVC007=



000
FTUS44 KBMX 181720
TAFTOI
TAF
KTOI 181720Z 1818/1918 VRB04KT P6SM BKN008
     FM181900 VRB04KT P6SM BKN020
     FM190600 15008KT 5SM SHRA OVC007
     FM191200 18008KT P6SM OVC007=



    US Dept of Commerce
    National Oceanic and Atmospheric Administration
    National Weather Service
    1325 East West Highway
    Silver Spring, MD 20910
    Page Author: NWS Internet Services Team
Disclaimer
Information Quality
Credits
Glossary
Privacy Policy
Freedom of Information Act (FOIA)
About Us
Career Opportunities